Maysville, Colorado
Current Conditions -  °F | °C
As of 8:35 AM on Friday 28 Nov 2014 (Local Time) from KANK Reporting Station
Clear Clear  
Wind Chill: 51°   Ceiling: Unl
Heat Index: 51°   Visibility: 10mi
Dew Point:   Wind: 20mph
Humidity: 14%   Direction: 220°SW
Pressure: 30.22"   Gusts: 24mph
Location:  38.5561°N, 106.066°W
Report Text: KANK 281535Z AUTO 22017G21KT 10SM CLR 11/M16 A3022 RMK AO1 T01081161
Loading
Personal Weather Stations






























Interactive Weather Map New forecast layout! Learn more

10-Day Weather Forecast

Advertisements
Track Severe Weather on mobile